createdAt,value
2023-02-12T00:01:35.768Z,4.03
2023-02-12T00:04:04.089Z,2.73
2023-02-12T00:06:32.228Z,3.47
2023-02-12T00:09:00.523Z,1.60
2023-02-12T00:11:29.970Z,2.50
2023-02-12T00:14:00.405Z,3.03
2023-02-12T00:16:29.880Z,1.33
2023-02-12T00:18:59.261Z,2.10
2023-02-12T00:21:27.679Z,2.40
2023-02-12T00:23:55.896Z,2.73
2023-02-12T00:26:24.435Z,2.57
2023-02-12T00:28:53.107Z,5.57
2023-02-12T00:31:25.017Z,4.43
2023-02-12T00:33:53.231Z,3.40
2023-02-12T00:36:24.457Z,1.93
2023-02-12T00:38:53.727Z,2.50
2023-02-12T00:41:22.680Z,2.50
2023-02-12T00:43:50.820Z,4.63
2023-02-12T00:46:19.088Z,2.63
2023-02-12T00:48:48.656Z,2.90
2023-02-12T00:51:16.948Z,3.40
2023-02-12T00:53:45.083Z,3.00
2023-02-12T00:56:13.253Z,3.27
2023-02-12T00:58:41.465Z,2.13
2023-02-12T01:01:09.934Z,1.23
2023-02-12T01:03:38.614Z,2.53
2023-02-12T01:06:08.790Z,1.53
2023-02-12T01:08:37.334Z,2.57
2023-02-12T01:11:07.944Z,4.13
2023-02-12T01:13:36.848Z,3.50
2023-02-12T01:16:17.943Z,2.50
2023-02-12T01:18:47.211Z,3.37
2023-02-12T01:21:19.228Z,6.20
2023-02-12T01:23:48.366Z,4.40
2023-02-12T01:26:19.367Z,1.43
2023-02-12T01:28:51.906Z,2.63
2023-02-12T01:31:22.228Z,2.03
2023-02-12T01:33:51.624Z,1.63
2023-02-12T01:36:21.694Z,2.57
2023-02-12T01:38:50.205Z,2.37
2023-02-12T01:41:20.803Z,2.20
2023-02-12T01:44:11.054Z,3.20
2023-02-12T01:46:40.314Z,4.47
2023-02-12T01:49:13.263Z,2.37
2023-02-12T01:51:43.433Z,2.20
2023-02-12T01:54:14.466Z,2.57
2023-02-12T01:56:43.616Z,2.80
2023-02-12T01:59:12.701Z,4.60
2023-02-12T02:01:41.003Z,2.67
2023-02-12T02:04:13.242Z,2.33
2023-02-12T02:06:49.143Z,1.97
2023-02-12T02:09:18.355Z,2.57
2023-02-12T02:12:03.958Z,1.37
2023-02-12T02:14:34.710Z,1.67
2023-02-12T02:17:14.292Z,5.50
2023-02-12T02:20:22.724Z,2.50
2023-02-12T02:23:02.579Z,2.20
2023-02-12T02:25:51.919Z,1.73
2023-02-12T02:28:41.645Z,2.07
2023-02-12T02:31:17.930Z,1.90
2023-02-12T02:33:56.206Z,2.80
2023-02-12T02:36:34.580Z,1.87
2023-02-12T02:39:07.456Z,4.63
2023-02-12T02:41:39.534Z,3.50
2023-02-12T02:44:14.996Z,3.43
2023-02-12T02:46:48.256Z,3.80
2023-02-12T02:49:22.765Z,4.50
2023-02-12T02:51:55.710Z,7.83
2023-02-12T02:54:30.731Z,6.30
2023-02-12T02:57:06.674Z,6.30
2023-02-12T02:59:38.933Z,7.17
2023-02-12T03:02:13.762Z,6.67
2023-02-12T03:04:46.726Z,5.33
2023-02-12T03:07:19.885Z,2.33
2023-02-12T03:09:51.796Z,4.87
2023-02-12T03:12:24.605Z,6.57
2023-02-12T03:14:59.789Z,7.17
2023-02-12T03:17:33.975Z,5.00
2023-02-12T03:20:06.825Z,6.27
2023-02-12T03:22:37.368Z,8.70
2023-02-12T03:25:14.783Z,5.27
2023-02-12T03:27:45.536Z,4.27
2023-02-12T03:30:14.888Z,4.03
2023-02-12T03:32:52.738Z,4.07
2023-02-12T03:35:23.043Z,4.90
2023-02-12T03:37:57.853Z,5.07
2023-02-12T03:40:32.550Z,4.20
2023-02-12T03:43:08.053Z,8.77
2023-02-12T03:45:45.945Z,6.70
2023-02-12T03:48:23.376Z,4.73
2023-02-12T03:50:56.923Z,3.90
2023-02-12T03:53:26.774Z,7.33
2023-02-12T03:56:00.718Z,4.73
2023-02-12T03:58:31.543Z,5.50
2023-02-12T04:01:00.906Z,3.13
2023-02-12T04:03:31.074Z,4.27
2023-02-12T04:05:59.194Z,4.90
2023-02-12T04:08:28.853Z,7.53
2023-02-12T04:11:07.702Z,4.97
2023-02-12T04:13:43.550Z,5.37
2023-02-12T04:16:21.105Z,5.83
2023-02-12T04:18:50.936Z,3.40
2023-02-12T04:21:31.001Z,3.90
2023-02-12T04:24:07.014Z,5.87
2023-02-12T04:26:40.502Z,3.20
2023-02-12T04:29:18.400Z,4.30
2023-02-12T04:31:50.630Z,4.37
2023-02-12T04:34:29.270Z,3.30
2023-02-12T04:37:00.400Z,4.80
2023-02-12T04:39:31.218Z,3.30
2023-02-12T04:42:00.637Z,4.93
2023-02-12T04:44:32.398Z,3.23
2023-02-12T04:47:00.667Z,3.47
2023-02-12T04:49:30.343Z,2.90
2023-02-12T04:51:58.687Z,3.93
2023-02-12T04:54:26.823Z,3.43
2023-02-12T04:56:55.088Z,4.47
2023-02-12T04:59:23.246Z,4.73
2023-02-12T05:01:51.421Z,6.70
2023-02-12T05:04:20.374Z,6.57
2023-02-12T05:06:49.950Z,3.53
2023-02-12T05:09:19.932Z,4.13
2023-02-12T05:11:48.095Z,3.77
2023-02-12T05:14:16.473Z,5.97
2023-02-12T05:16:44.719Z,3.13
2023-02-12T05:19:13.156Z,4.10
2023-02-12T05:21:41.312Z,3.33
2023-02-12T05:24:11.041Z,3.03
2023-02-12T05:26:39.151Z,3.67
2023-02-12T05:29:07.287Z,5.67
2023-02-12T05:31:35.590Z,3.00
2023-02-12T05:34:03.895Z,5.23
2023-02-12T05:36:32.046Z,2.83
2023-02-12T05:39:01.146Z,4.43
2023-02-12T05:41:34.912Z,3.47
2023-02-12T05:44:03.598Z,3.97
2023-02-12T05:46:32.283Z,2.43
2023-02-12T05:49:00.755Z,3.07
2023-02-12T05:51:29.013Z,3.97
2023-02-12T05:54:00.321Z,3.70
2023-02-12T05:56:31.822Z,6.73
2023-02-12T05:59:03.446Z,2.73
2023-02-12T06:01:33.728Z,2.97
2023-02-12T06:04:02.529Z,5.03
2023-02-12T06:06:32.108Z,3.07
2023-02-12T06:09:00.504Z,4.97
2023-02-12T06:11:29.314Z,5.03
2023-02-12T06:13:58.861Z,4.33
2023-02-12T06:16:29.098Z,2.10
2023-02-12T06:18:58.273Z,2.50
2023-02-12T06:21:27.894Z,5.00
2023-02-12T06:23:56.389Z,3.87
2023-02-12T06:26:25.327Z,3.50
2023-02-12T06:28:53.960Z,4.80
2023-02-12T06:31:25.488Z,4.60
2023-02-12T06:33:55.049Z,4.87
2023-02-12T06:36:23.458Z,3.43
2023-02-12T06:38:51.990Z,4.17
2023-02-12T06:41:20.662Z,4.93
2023-02-12T06:43:48.838Z,4.37
2023-02-12T06:46:17.238Z,4.30
2023-02-12T06:48:46.771Z,4.00
2023-02-12T06:51:17.740Z,4.70
2023-02-12T06:53:46.366Z,5.97
2023-02-12T06:56:15.335Z,4.43
2023-02-12T06:58:45.306Z,6.30
2023-02-12T07:01:17.697Z,2.73
2023-02-12T07:03:50.911Z,3.30
2023-02-12T07:06:19.640Z,4.50
2023-02-12T07:08:47.874Z,3.97
2023-02-12T07:11:16.225Z,2.60
2023-02-12T07:13:45.467Z,2.97
2023-02-12T07:16:15.733Z,3.07
2023-02-12T07:18:46.316Z,3.77
2023-02-12T07:21:16.150Z,2.37
2023-02-12T07:23:50.808Z,3.13
2023-02-12T07:26:20.236Z,5.30
2023-02-12T07:28:48.921Z,2.57
2023-02-12T07:31:18.715Z,2.60
2023-02-12T07:33:49.037Z,2.20
2023-02-12T07:36:18.998Z,3.23
2023-02-12T07:38:48.046Z,3.60
2023-02-12T07:41:18.444Z,3.00
2023-02-12T07:43:48.118Z,3.63
2023-02-12T07:46:22.315Z,2.77
2023-02-12T07:48:53.024Z,4.40
2023-02-12T07:51:21.187Z,2.93
2023-02-12T07:53:49.947Z,5.13
2023-02-12T07:56:20.466Z,6.63
2023-02-12T07:58:51.533Z,3.60
2023-02-12T08:01:21.948Z,6.93
2023-02-12T08:03:52.461Z,3.13
2023-02-12T08:06:23.017Z,2.30
2023-02-12T08:08:52.836Z,3.97
2023-02-12T08:11:21.151Z,3.53
2023-02-12T08:13:49.743Z,2.90
2023-02-12T08:16:19.372Z,5.77
2023-02-12T08:18:48.160Z,3.47
2023-02-12T08:21:19.744Z,6.33
2023-02-12T08:23:50.805Z,3.53
2023-02-12T08:26:20.636Z,4.50
2023-02-12T08:28:51.015Z,3.60
2023-02-12T08:31:21.363Z,4.90
2023-02-12T08:33:51.220Z,3.00
2023-02-12T08:36:22.922Z,2.40
2023-02-12T08:38:51.867Z,12.07
2023-02-12T08:41:21.947Z,3.43
2023-02-12T08:43:51.553Z,2.90
2023-02-12T08:46:21.687Z,4.87
2023-02-12T08:48:53.271Z,1.53
2023-02-12T08:51:24.488Z,2.73
2023-02-12T08:53:55.347Z,3.47
2023-02-12T08:56:24.266Z,3.73
2023-02-12T08:58:53.283Z,3.00
2023-02-12T09:01:23.403Z,3.00
2023-02-12T09:03:52.649Z,4.47
2023-02-12T09:06:24.356Z,2.83
2023-02-12T09:08:53.426Z,4.20
2023-02-12T09:11:30.337Z,4.87
2023-02-12T09:14:00.129Z,2.67
2023-02-12T09:16:28.906Z,4.60
2023-02-12T09:18:57.430Z,4.57
2023-02-12T09:21:27.360Z,5.60
2023-02-12T09:23:55.777Z,5.57
2023-02-12T09:26:26.877Z,4.57
2023-02-12T09:28:55.859Z,4.70
2023-02-12T09:31:26.577Z,5.13
2023-02-12T09:33:55.981Z,8.17
2023-02-12T09:36:24.130Z,6.00
2023-02-12T09:38:54.912Z,4.90
2023-02-12T09:41:47.937Z,4.87
2023-02-12T09:44:22.741Z,4.37
2023-02-12T09:46:55.443Z,5.43
2023-02-12T09:49:44.369Z,4.77
2023-02-12T09:52:16.655Z,6.07
2023-02-12T09:54:46.929Z,4.50
2023-02-12T09:57:20.897Z,4.00
2023-02-12T09:59:54.870Z,4.53
2023-02-12T10:02:24.988Z,4.57
2023-02-12T10:05:01.321Z,4.20
2023-02-12T10:07:48.573Z,4.97
2023-02-12T10:10:36.010Z,5.37
2023-02-12T10:13:07.499Z,8.90
2023-02-12T10:15:41.324Z,4.87
2023-02-12T10:18:30.014Z,7.40
2023-02-12T10:21:13.022Z,6.90
2023-02-12T10:24:07.092Z,8.03
2023-02-12T10:26:42.511Z,5.13
2023-02-12T10:29:17.224Z,10.10
2023-02-12T10:31:50.088Z,6.13
2023-02-12T10:34:21.966Z,10.80
2023-02-12T10:36:52.743Z,7.83
2023-02-12T10:39:25.134Z,5.80
2023-02-12T10:42:02.551Z,6.83
2023-02-12T10:44:31.088Z,6.97
2023-02-12T10:46:59.243Z,7.63
2023-02-12T10:49:27.972Z,9.00
2023-02-12T10:52:10.904Z,8.87
2023-02-12T10:54:42.713Z,7.50
2023-02-12T10:57:21.675Z,6.90
2023-02-12T10:59:51.575Z,7.40
2023-02-12T11:02:23.210Z,7.00
2023-02-12T11:04:52.239Z,5.13
2023-02-12T11:07:20.995Z,6.03
2023-02-12T11:09:50.597Z,8.07
2023-02-12T11:12:30.944Z,7.10
2023-02-12T11:15:01.222Z,6.80
2023-02-12T11:17:35.135Z,9.20
2023-02-12T11:20:09.771Z,8.23
2023-02-12T11:22:38.458Z,7.07
2023-02-12T11:25:16.976Z,5.73
2023-02-12T11:27:46.594Z,5.30
2023-02-12T11:30:19.750Z,5.47
2023-02-12T11:32:49.490Z,8.47
2023-02-12T11:35:25.013Z,5.67
2023-02-12T11:37:56.944Z,7.77
2023-02-12T11:40:28.150Z,6.47
2023-02-12T11:43:00.713Z,6.60
2023-02-12T11:45:33.972Z,7.53
2023-02-12T11:48:02.581Z,8.70
2023-02-12T11:50:32.716Z,6.97
2023-02-12T11:53:06.971Z,7.23
2023-02-12T11:55:39.389Z,9.87
2023-02-12T11:58:16.937Z,9.07
2023-02-12T12:00:52.131Z,9.13
2023-02-12T12:03:26.263Z,10.77
2023-02-12T12:06:00.712Z,8.23
2023-02-12T12:08:33.041Z,7.27
2023-02-12T12:11:08.167Z,13.17
2023-02-12T12:13:44.334Z,9.80
2023-02-12T12:16:34.724Z,9.80
2023-02-12T12:19:26.179Z,10.40
2023-02-12T12:22:01.712Z,10.00
2023-02-12T12:24:39.367Z,9.63
2023-02-12T12:27:35.565Z,10.30
2023-02-12T12:30:13.604Z,10.57
2023-02-12T12:32:43.169Z,17.93
2023-02-12T12:35:14.545Z,15.03
2023-02-12T12:37:48.199Z,10.30
2023-02-12T12:40:43.962Z,10.10
2023-02-12T12:43:19.376Z,9.60
2023-02-12T12:46:26.494Z,10.80
2023-02-12T12:49:15.111Z,10.60
2023-02-12T12:52:04.961Z,8.40
2023-02-12T12:54:49.576Z,8.53
2023-02-12T12:57:27.136Z,11.97
2023-02-12T13:00:09.864Z,10.23
2023-02-12T13:03:06.964Z,9.83
2023-02-12T13:06:32.385Z,13.67
2023-02-12T13:09:25.892Z,9.53
2023-02-12T13:12:14.390Z,7.33
2023-02-12T13:14:48.493Z,9.37
2023-02-12T13:17:24.594Z,10.40
2023-02-12T13:20:08.137Z,7.83
2023-02-12T13:22:41.740Z,8.70
2023-02-12T13:25:23.602Z,9.03
2023-02-12T13:27:53.581Z,11.47
2023-02-12T13:30:26.146Z,9.37
2023-02-12T13:33:07.103Z,10.57
2023-02-12T13:35:41.295Z,11.43
2023-02-12T13:38:15.221Z,9.07
2023-02-12T13:40:43.607Z,7.70
2023-02-12T13:43:24.504Z,7.70
2023-02-12T13:46:01.155Z,10.37
2023-02-12T13:48:52.220Z,9.90
2023-02-12T13:51:32.500Z,8.10
2023-02-12T13:54:20.612Z,11.67
2023-02-12T13:56:50.927Z,11.53
2023-02-12T13:59:53.776Z,10.70
2023-02-12T14:02:44.256Z,10.53
2023-02-12T14:05:30.692Z,10.63
2023-02-12T14:08:03.592Z,8.63
2023-02-12T14:10:35.092Z,9.27
2023-02-12T14:13:16.172Z,7.43
2023-02-12T14:15:46.570Z,12.67
2023-02-12T14:18:35.551Z,11.20
2023-02-12T14:21:43.209Z,8.83
2023-02-12T14:24:50.506Z,11.60
2023-02-12T14:27:26.259Z,13.07
2023-02-12T14:30:30.080Z,13.20
2023-02-12T14:33:25.224Z,10.17
2023-02-12T14:36:16.651Z,14.37
2023-02-12T14:39:05.470Z,9.47
2023-02-12T14:41:41.776Z,14.93
2023-02-12T14:44:47.690Z,15.57
2023-02-12T14:47:51.943Z,15.00
2023-02-12T14:50:24.640Z,14.03
2023-02-12T14:53:00.744Z,14.97
2023-02-12T14:55:34.303Z,16.07
2023-02-12T14:58:07.598Z,16.67
2023-02-12T15:00:39.828Z,16.20
2023-02-12T15:03:26.072Z,18.13
2023-02-12T15:06:00.818Z,17.93
2023-02-12T15:08:36.858Z,20.53
2023-02-12T15:11:21.374Z,16.80
2023-02-12T15:13:56.049Z,14.33
2023-02-12T15:16:32.518Z,17.73
2023-02-12T15:19:07.067Z,18.00
2023-02-12T15:21:36.652Z,19.03
2023-02-12T15:24:08.002Z,13.53
2023-02-12T15:26:41.533Z,15.73
2023-02-12T15:29:21.492Z,17.23
2023-02-12T15:31:53.009Z,17.83
2023-02-12T15:34:24.110Z,18.13
2023-02-12T15:36:52.630Z,18.27
2023-02-12T15:39:22.978Z,18.80
2023-02-12T15:41:52.229Z,20.83
2023-02-12T15:44:27.453Z,15.80
2023-02-12T15:47:04.210Z,16.57
2023-02-12T15:49:35.871Z,17.47
2023-02-12T15:52:16.787Z,18.57
2023-02-12T15:54:46.053Z,18.07
2023-02-12T15:57:20.794Z,18.00
2023-02-12T15:59:53.546Z,18.37
2023-02-12T16:02:26.098Z,19.67
2023-02-12T16:04:54.336Z,18.20
2023-02-12T16:07:23.835Z,19.80
2023-02-12T16:09:54.777Z,21.07
2023-02-12T16:12:25.732Z,15.80
2023-02-12T16:14:59.161Z,14.63
2023-02-12T16:17:30.223Z,14.63
2023-02-12T16:20:00.164Z,16.17
2023-02-12T16:22:32.833Z,15.13
2023-02-12T16:25:02.209Z,18.27
2023-02-12T16:27:32.412Z,17.00
2023-02-12T16:30:05.824Z,16.13
2023-02-12T16:32:39.610Z,18.00
2023-02-12T16:35:24.621Z,16.47
2023-02-12T16:37:56.443Z,15.30
2023-02-12T16:40:36.874Z,16.23
2023-02-12T16:43:25.792Z,14.33
2023-02-12T16:46:05.168Z,16.70
2023-02-12T16:48:40.303Z,19.13
2023-02-12T16:51:20.826Z,18.00
2023-02-12T16:53:50.225Z,17.43
2023-02-12T16:56:21.180Z,19.13
2023-02-12T16:58:51.215Z,18.57
2023-02-12T17:01:24.558Z,24.30
2023-02-12T17:03:53.015Z,22.07
2023-02-12T17:06:22.838Z,24.57
2023-02-12T17:08:51.823Z,22.03
2023-02-12T17:11:20.664Z,23.17
2023-02-12T17:13:50.442Z,22.43
2023-02-12T17:16:30.382Z,23.57
2023-02-12T17:19:00.722Z,32.07
2023-02-12T17:21:31.699Z,30.00
2023-02-12T17:24:00.033Z,29.97
2023-02-12T17:26:28.988Z,28.27
2023-02-12T17:29:05.114Z,29.30
2023-02-12T17:31:33.532Z,37.50
2023-02-12T17:34:03.248Z,30.83
2023-02-12T17:36:31.582Z,25.40
2023-02-12T17:39:00.147Z,27.23
2023-02-12T17:41:37.043Z,28.30
2023-02-12T17:44:05.339Z,33.70
2023-02-12T17:46:33.602Z,32.53
2023-02-12T17:49:04.347Z,32.00
2023-02-12T17:51:32.554Z,35.70
2023-02-12T17:54:00.698Z,53.37
2023-02-12T17:56:28.848Z,47.77
2023-02-12T17:58:56.974Z,36.63
2023-02-12T18:01:25.571Z,42.37
2023-02-12T18:03:55.929Z,39.27
2023-02-12T18:06:28.790Z,47.30
2023-02-12T18:08:58.349Z,38.77
2023-02-12T18:11:27.813Z,43.13
2023-02-12T18:13:56.924Z,46.20
2023-02-12T18:16:26.769Z,48.80
2023-02-12T18:18:55.076Z,51.67
2023-02-12T18:21:23.292Z,52.70
2023-02-12T18:23:54.580Z,40.90
2023-02-12T18:26:26.957Z,37.70
2023-02-12T18:28:55.263Z,40.50
2023-02-12T18:31:23.645Z,38.53
2023-02-12T18:33:52.113Z,40.67
2023-02-12T18:36:22.516Z,39.60
2023-02-12T18:38:53.560Z,43.00
2023-02-12T18:41:23.742Z,40.80
2023-02-12T18:43:51.934Z,38.73
2023-02-12T18:46:22.419Z,39.60
2023-02-12T18:48:51.267Z,38.30
2023-02-12T18:51:22.358Z,41.20
2023-02-12T18:53:57.162Z,40.93
2023-02-12T18:56:25.559Z,48.63
2023-02-12T18:58:57.579Z,47.33
2023-02-12T19:01:26.993Z,46.63
2023-02-12T19:03:56.541Z,37.70
2023-02-12T19:06:25.318Z,36.30
2023-02-12T19:08:57.116Z,39.00
2023-02-12T19:11:26.019Z,31.43
2023-02-12T19:13:54.540Z,35.97
2023-02-12T19:16:24.653Z,42.27
2023-02-12T19:18:56.867Z,32.53
2023-02-12T19:21:26.442Z,35.37
2023-02-12T19:23:56.669Z,39.03
2023-02-12T19:26:25.494Z,35.97
2023-02-12T19:28:54.076Z,41.13
2023-02-12T19:31:24.171Z,38.80
2023-02-12T19:33:56.280Z,38.93
2023-02-12T19:36:25.301Z,41.93
2023-02-12T19:38:53.945Z,39.17
2023-02-12T19:41:25.795Z,35.03
2023-02-12T19:43:55.892Z,30.27
2023-02-12T19:46:24.081Z,35.47
2023-02-12T19:48:56.548Z,35.70
2023-02-12T19:51:26.093Z,37.47
2023-02-12T19:53:54.720Z,39.07
2023-02-12T19:56:24.849Z,33.57
2023-02-12T19:58:53.185Z,39.30
2023-02-12T20:01:22.274Z,38.47
2023-02-12T20:03:51.198Z,36.77
2023-02-12T20:06:22.438Z,37.90
2023-02-12T20:08:51.433Z,36.43
2023-02-12T20:11:21.232Z,37.20
2023-02-12T20:13:51.737Z,39.83
2023-02-12T20:16:22.163Z,45.27
2023-02-12T20:18:51.711Z,39.17
2023-02-12T20:21:23.434Z,37.10
2023-02-12T20:23:52.166Z,37.63
2023-02-12T20:26:21.346Z,38.03
2023-02-12T20:28:51.835Z,42.77
2023-02-12T20:31:22.316Z,43.80
2023-02-12T20:33:56.174Z,43.30
2023-02-12T20:36:26.395Z,37.67
2023-02-12T20:38:56.835Z,43.33
2023-02-12T20:41:26.430Z,43.10
2023-02-12T20:43:56.385Z,37.43
2023-02-12T20:46:25.778Z,47.63
2023-02-12T20:48:54.403Z,44.10
2023-02-12T20:51:24.707Z,43.90
2023-02-12T20:53:54.069Z,53.67
2023-02-12T20:56:24.253Z,43.37
2023-02-12T20:58:52.919Z,45.13
2023-02-12T21:01:24.756Z,48.97
2023-02-12T21:03:54.922Z,52.23
2023-02-12T21:06:25.617Z,48.70
2023-02-12T21:08:53.931Z,51.87
2023-02-12T21:11:23.697Z,58.57
2023-02-12T21:13:59.236Z,50.73
2023-02-12T21:16:33.984Z,57.87
2023-02-12T21:19:02.203Z,49.13
2023-02-12T21:21:32.179Z,60.23
2023-02-12T21:24:02.084Z,58.67
2023-02-12T21:26:32.322Z,59.10
2023-02-12T21:29:01.747Z,58.43
2023-02-12T21:31:34.709Z,58.47
2023-02-12T21:34:04.531Z,60.20
2023-02-12T21:36:34.699Z,67.87
2023-02-12T21:39:03.576Z,69.17
2023-02-12T21:41:34.484Z,73.47
2023-02-12T21:44:04.267Z,67.77
2023-02-12T21:46:34.631Z,58.50
2023-02-12T21:49:03.772Z,61.83
2023-02-12T21:51:33.592Z,63.00
2023-02-12T21:54:03.964Z,66.60
2023-02-12T21:56:32.507Z,61.27
2023-02-12T21:59:01.014Z,62.27
2023-02-12T22:01:32.235Z,66.80
2023-02-12T22:04:03.489Z,64.97
2023-02-12T22:06:31.749Z,56.77
2023-02-12T22:09:03.419Z,73.70
2023-02-12T22:11:31.497Z,71.10
2023-02-12T22:13:59.703Z,69.97
2023-02-12T22:16:29.521Z,77.07
2023-02-12T22:19:00.360Z,66.07
2023-02-12T22:21:32.035Z,67.93
2023-02-12T22:24:01.958Z,80.27
2023-02-12T22:26:31.697Z,71.57
2023-02-12T22:29:02.415Z,70.37
2023-02-12T22:31:35.663Z,81.77
2023-02-12T22:34:05.932Z,76.97
2023-02-12T22:36:38.268Z,69.13
2023-02-12T22:39:07.173Z,72.80
2023-02-12T22:41:35.800Z,75.10
2023-02-12T22:44:05.286Z,77.37
2023-02-12T22:46:36.069Z,66.87
2023-02-12T22:49:04.276Z,79.37
2023-02-12T22:51:34.563Z,76.80
2023-02-12T22:54:06.177Z,84.30
2023-02-12T22:56:34.525Z,63.30
2023-02-12T22:59:03.679Z,67.80
2023-02-12T23:01:32.323Z,69.43
2023-02-12T23:04:00.652Z,73.83
2023-02-12T23:06:30.688Z,75.90
2023-02-12T23:09:01.165Z,74.90
2023-02-12T23:11:33.060Z,58.17
2023-02-12T23:14:01.624Z,72.80
2023-02-12T23:16:29.858Z,71.03
2023-02-12T23:18:59.245Z,78.13
2023-02-12T23:21:28.845Z,72.23
2023-02-12T23:23:59.019Z,59.63
2023-02-12T23:26:27.592Z,68.13
2023-02-12T23:28:57.949Z,66.17
2023-02-12T23:31:27.046Z,74.80
2023-02-12T23:33:55.299Z,95.70
2023-02-12T23:36:23.428Z,85.97
2023-02-12T23:38:51.518Z,90.87
2023-02-12T23:41:19.617Z,64.33
2023-02-12T23:43:47.782Z,70.70
2023-02-12T23:46:17.375Z,72.90
2023-02-12T23:48:45.631Z,75.03
2023-02-12T23:51:13.715Z,75.77
2023-02-12T23:53:41.941Z,64.33
2023-02-12T23:56:10.113Z,99.33
2023-02-12T23:58:38.417Z,90.07
